Time;durP1;ratioP1;P1;durP2;ratioP2;P2;SDS_P1;SDS_P2;PMS_P1;PMS_P2;Temp;Humidity;BMP_temperature;BMP_pressure;BME280_temperature;BME280_humidity;BME280_pressure;Samples;Min_cycle;Max_cycle;Signal;HPM_P1;HPM_P2
2022/09/14 00:01:39;;;;;;;2.45;1.20;;;;;;;;;;5046066;28;20041;-81
2022/09/14 00:04:07;;;;;;;2.47;1.27;;;;;;;;;;5044975;28;20099;-81
2022/09/14 00:06:33;;;;;;;3.88;1.30;;;;;;;;;;5048343;28;20544;-81
2022/09/14 00:09:04;;;;;;;4.75;1.30;;;;;;;;;;5049626;28;20044;-81
2022/09/14 00:11:31;;;;;;;4.20;1.30;;;;;;;;;;5044334;28;20049;-81
2022/09/14 00:13:58;;;;;;;4.35;1.33;;;;;;;;;;5042260;28;20052;-81
2022/09/14 00:16:28;;;;;;;3.10;1.48;;;;;;;;;;5050532;28;20052;-81
2022/09/14 00:18:56;;;;;;;1.98;1.20;;;;;;;;;;5049851;28;20079;-81
2022/09/14 00:21:23;;;;;;;2.55;1.25;;;;;;;;;;5044071;28;20053;-81
2022/09/14 00:23:49;;;;;;;4.28;1.38;;;;;;;;;;5048115;28;20572;-81
2022/09/14 00:26:16;;;;;;;2.40;1.20;;;;;;;;;;5046372;28;20146;-81
2022/09/14 00:28:43;;;;;;;2.97;1.23;;;;;;;;;;5052707;28;20045;-81
2022/09/14 00:31:10;;;;;;;2.58;1.13;;;;;;;;;;5043796;28;20556;-81
2022/09/14 00:33:37;;;;;;;2.03;1.05;;;;;;;;;;5049325;28;20392;-81
2022/09/14 00:36:07;;;;;;;1.58;1.10;;;;;;;;;;5045707;28;20400;-81
2022/09/14 00:38:34;;;;;;;3.25;1.55;;;;;;;;;;5049592;28;20095;-81
2022/09/14 00:41:01;;;;;;;2.33;1.20;;;;;;;;;;5045916;28;20067;-81
2022/09/14 00:43:27;;;;;;;3.60;1.10;;;;;;;;;;5047127;28;20087;-82
2022/09/14 00:45:53;;;;;;;2.65;1.20;;;;;;;;;;5042075;28;20485;-81
2022/09/14 00:48:19;;;;;;;2.45;1.10;;;;;;;;;;5050756;28;20047;-81
2022/09/14 00:50:45;;;;;;;1.85;1.20;;;;;;;;;;5046664;28;20128;-81
2022/09/14 00:53:11;;;;;;;2.33;1.00;;;;;;;;;;5046392;28;20470;-81
2022/09/14 00:55:37;;;;;;;3.80;1.08;;;;;;;;;;5045935;28;20072;-80
2022/09/14 00:58:04;;;;;;;2.20;1.30;;;;;;;;;;5048232;28;20076;-81
2022/09/14 01:00:30;;;;;;;1.23;0.95;;;;;;;;;;5046959;28;20476;-81
2022/09/14 01:02:57;;;;;;;3.67;1.05;;;;;;;;;;5042340;28;20378;-81
2022/09/14 01:05:27;;;;;;;1.83;0.95;;;;;;;;;;5043720;28;20064;-81
2022/09/14 01:07:53;;;;;;;2.72;1.17;;;;;;;;;;5039345;28;20037;-81
2022/09/14 01:10:30;;;;;;;3.03;1.00;;;;;;;;;;5044274;28;20037;-81
2022/09/14 01:13:02;;;;;;;2.58;1.20;;;;;;;;;;5037951;28;20044;-81
2022/09/14 01:15:35;;;;;;;3.70;1.20;;;;;;;;;;5045289;28;20527;-81
2022/09/14 01:18:14;;;;;;;5.55;1.33;;;;;;;;;;5038566;28;21504;-81
2022/09/14 01:20:43;;;;;;;2.58;1.17;;;;;;;;;;5042367;28;20045;-82
2022/09/14 01:23:12;;;;;;;3.05;1.13;;;;;;;;;;5041930;28;20037;-82
2022/09/14 01:25:57;;;;;;;3.05;1.25;;;;;;;;;;5044641;28;20052;-81
2022/09/14 01:28:42;;;;;;;2.65;1.00;;;;;;;;;;5045482;28;20044;-82
2022/09/14 01:31:14;;;;;;;1.58;1.10;;;;;;;;;;5046743;28;20044;-81
2022/09/14 01:33:45;;;;;;;2.28;1.13;;;;;;;;;;5042711;28;20163;-81
2022/09/14 01:36:13;;;;;;;2.95;1.20;;;;;;;;;;5043120;28;20144;-81
2022/09/14 01:38:47;;;;;;;1.48;1.00;;;;;;;;;;5044926;28;20501;-81
2022/09/14 01:41:14;;;;;;;2.72;1.13;;;;;;;;;;5044528;28;20049;-81
2022/09/14 01:43:43;;;;;;;1.80;1.00;;;;;;;;;;5046800;28;20059;-81
2022/09/14 01:46:09;;;;;;;2.58;1.10;;;;;;;;;;5045110;28;20381;-81
2022/09/14 01:48:44;;;;;;;1.50;0.90;;;;;;;;;;5044089;28;20045;-81
2022/09/14 01:51:12;;;;;;;2.33;1.00;;;;;;;;;;5047006;28;20179;-81
2022/09/14 01:53:40;;;;;;;2.60;1.08;;;;;;;;;;5042912;28;20161;-81
2022/09/14 01:56:19;;;;;;;0.93;0.93;;;;;;;;;;5046469;28;20037;-81
2022/09/14 01:59:05;;;;;;;2.35;1.08;;;;;;;;;;5046053;28;20049;-81
2022/09/14 02:01:35;;;;;;;2.72;1.02;;;;;;;;;;5043388;28;20056;-81
2022/09/14 02:04:04;;;;;;;3.58;1.38;;;;;;;;;;5044486;28;20074;-81
2022/09/14 02:06:40;;;;;;;3.28;1.17;;;;;;;;;;5042607;28;20049;-82
2022/09/14 02:09:08;;;;;;;2.65;0.90;;;;;;;;;;5045957;28;20132;-81
2022/09/14 02:11:34;;;;;;;2.22;0.90;;;;;;;;;;5042899;28;20047;-81
2022/09/14 02:14:01;;;;;;;1.77;1.00;;;;;;;;;;5044214;28;20033;-82
2022/09/14 02:16:27;;;;;;;1.75;0.90;;;;;;;;;;5045576;28;20052;-81
2022/09/14 02:18:53;;;;;;;2.78;1.00;;;;;;;;;;5045173;28;20045;-81
2022/09/14 02:21:21;;;;;;;1.15;1.05;;;;;;;;;;5048440;28;20037;-82
2022/09/14 02:23:48;;;;;;;2.20;0.93;;;;;;;;;;5039062;28;20080;-81
2022/09/14 02:26:15;;;;;;;1.30;0.90;;;;;;;;;;5041670;28;20493;-81
2022/09/14 02:28:40;;;;;;;3.03;1.10;;;;;;;;;;5045703;28;20048;-81
2022/09/14 02:31:06;;;;;;;2.67;0.90;;;;;;;;;;5038687;28;20041;-81
2022/09/14 02:33:38;;;;;;;1.98;1.10;;;;;;;;;;5046629;28;20088;-81
2022/09/14 02:36:10;;;;;;;3.05;1.23;;;;;;;;;;5044051;28;20111;-81
2022/09/14 02:38:44;;;;;;;2.00;0.98;;;;;;;;;;5040687;28;20044;-81
2022/09/14 02:41:17;;;;;;;1.20;1.10;;;;;;;;;;5042062;28;20075;-81
2022/09/14 02:43:43;;;;;;;;;;;;;;;;;;5044397;28;20558;-81
2022/09/14 02:46:15;;;;;;;2.78;1.10;;;;;;;;;;5043816;28;20312;-81
2022/09/14 02:48:51;;;;;;;2.22;1.08;;;;;;;;;;5045884;28;20136;-81
2022/09/14 02:51:26;;;;;;;1.75;1.08;;;;;;;;;;5048113;28;20092;-81
2022/09/14 02:53:59;;;;;;;1.73;1.00;;;;;;;;;;5042048;28;20045;-81
2022/09/14 02:56:25;;;;;;;1.75;0.93;;;;;;;;;;5044383;28;21406;-81
2022/09/14 02:58:51;;;;;;;1.05;0.88;;;;;;;;;;5045174;28;20073;-81
2022/09/14 03:01:18;;;;;;;1.80;0.85;;;;;;;;;;5045541;28;20076;-81
2022/09/14 03:03:44;;;;;;;1.77;0.90;;;;;;;;;;5045624;28;20497;-81
2022/09/14 03:06:10;;;;;;;1.92;0.98;;;;;;;;;;5044613;28;20045;-81
2022/09/14 03:08:37;;;;;;;1.10;1.00;;;;;;;;;;5046835;28;20041;-82
2022/09/14 03:11:03;;;;;;;2.28;1.10;;;;;;;;;;5045115;28;20060;-81
2022/09/14 03:13:29;;;;;;;2.30;1.00;;;;;;;;;;5046836;28;20060;-81
2022/09/14 03:15:55;;;;;;;1.00;0.90;;;;;;;;;;5043096;28;20048;-81
2022/09/14 03:18:21;;;;;;;2.22;1.25;;;;;;;;;;5041738;28;20045;-82
2022/09/14 03:20:47;;;;;;;0.98;0.90;;;;;;;;;;5044731;28;20045;-82
2022/09/14 03:23:13;;;;;;;1.95;1.02;;;;;;;;;;5048192;28;20048;-81
2022/09/14 03:25:41;;;;;;;1.35;1.00;;;;;;;;;;5050053;28;20091;-81
2022/09/14 03:28:07;;;;;;;1.00;0.90;;;;;;;;;;5047975;28;20040;-80
2022/09/14 03:30:33;;;;;;;2.70;1.02;;;;;;;;;;5051458;28;20302;-79
2022/09/14 03:33:00;;;;;;;1.90;1.20;;;;;;;;;;5051442;28;20075;-80
2022/09/14 03:35:30;;;;;;;1.88;1.20;;;;;;;;;;5042847;28;20056;-81
2022/09/14 03:37:56;;;;;;;0.95;0.90;;;;;;;;;;5045680;28;20593;-81
2022/09/14 03:40:22;;;;;;;0.90;0.82;;;;;;;;;;5046499;28;20051;-81
2022/09/14 03:42:49;;;;;;;1.00;0.90;;;;;;;;;;5046215;28;20132;-80
2022/09/14 03:45:15;;;;;;;2.75;1.20;;;;;;;;;;5047060;28;20052;-81
2022/09/14 03:47:42;;;;;;;1.98;0.90;;;;;;;;;;5049322;28;20121;-80
2022/09/14 03:50:09;;;;;;;1.08;0.90;;;;;;;;;;5052073;28;20140;-80
2022/09/14 03:52:36;;;;;;;1.52;0.80;;;;;;;;;;5048941;28;20052;-81
2022/09/14 03:55:03;;;;;;;1.00;0.90;;;;;;;;;;5048534;28;20192;-81
2022/09/14 03:57:29;;;;;;;0.90;0.90;;;;;;;;;;5049691;28;20453;-81
2022/09/14 03:59:55;;;;;;;2.65;1.20;;;;;;;;;;5046326;28;20072;-81
2022/09/14 04:02:21;;;;;;;1.20;1.10;;;;;;;;;;5050057;28;20102;-81
2022/09/14 04:04:48;;;;;;;2.15;1.40;;;;;;;;;;5040596;28;20072;-81
2022/09/14 04:07:15;;;;;;;3.35;1.40;;;;;;;;;;5041860;28;20041;-81
2022/09/14 04:09:41;;;;;;;2.45;1.40;;;;;;;;;;5046552;28;20089;-81
2022/09/14 04:12:08;;;;;;;5.85;1.40;;;;;;;;;;5050801;28;20041;-81
2022/09/14 04:14:37;;;;;;;3.72;1.30;;;;;;;;;;5045333;28;20438;-81
2022/09/14 04:17:03;;;;;;;2.78;1.55;;;;;;;;;;5047151;28;20136;-81
2022/09/14 04:19:29;;;;;;;2.40;1.30;;;;;;;;;;5044896;28;20056;-81
2022/09/14 04:21:55;;;;;;;1.92;1.40;;;;;;;;;;5049262;28;20131;-81
2022/09/14 04:24:21;;;;;;;1.55;1.40;;;;;;;;;;5042698;28;20510;-81
2022/09/14 04:26:47;;;;;;;2.85;1.75;;;;;;;;;;5045737;28;20041;-81
2022/09/14 04:29:14;;;;;;;3.45;1.77;;;;;;;;;;5045753;28;20048;-81
2022/09/14 04:31:40;;;;;;;3.92;1.70;;;;;;;;;;5046860;28;20033;-81
2022/09/14 04:34:06;;;;;;;5.53;1.90;;;;;;;;;;5044643;28;20094;-81
2022/09/14 04:36:32;;;;;;;2.42;1.70;;;;;;;;;;5048595;28;20524;-81
2022/09/14 04:38:59;;;;;;;4.68;1.80;;;;;;;;;;5045563;28;20052;-81
2022/09/14 04:41:26;;;;;;;2.45;1.80;;;;;;;;;;5044111;28;20057;-81
2022/09/14 04:43:52;;;;;;;2.88;1.58;;;;;;;;;;5045287;28;20049;-81
2022/09/14 04:46:23;;;;;;;2.05;1.80;;;;;;;;;;5042426;28;20083;-81
2022/09/14 04:48:49;;;;;;;2.45;1.85;;;;;;;;;;5044184;28;20072;-81
2022/09/14 04:51:17;;;;;;;2.38;1.60;;;;;;;;;;5048952;28;20087;-81
2022/09/14 04:53:44;;;;;;;2.30;1.60;;;;;;;;;;5046099;28;20118;-81
2022/09/14 04:56:11;;;;;;;2.75;1.80;;;;;;;;;;5043827;28;20033;-81
2022/09/14 04:58:38;;;;;;;4.45;1.75;;;;;;;;;;5049444;28;20481;-80
2022/09/14 05:01:05;;;;;;;3.33;1.75;;;;;;;;;;5042311;28;20079;-81
2022/09/14 05:03:31;;;;;;;3.80;1.80;;;;;;;;;;5047139;28;20076;-81
2022/09/14 05:06:04;;;;;;;5.15;1.90;;;;;;;;;;5040009;28;20052;-81
2022/09/14 05:08:31;;;;;;;2.38;1.63;;;;;;;;;;5046811;28;20102;-80
2022/09/14 05:10:57;;;;;;;5.85;1.90;;;;;;;;;;5042228;28;20499;-81
2022/09/14 05:13:24;;;;;;;3.65;1.90;;;;;;;;;;5045450;28;20381;-81
2022/09/14 05:15:51;;;;;;;2.30;1.50;;;;;;;;;;5050498;28;20037;-81
2022/09/14 05:18:18;;;;;;;17.88;9.88;;;;;;;;;;5049149;28;20045;-81
2022/09/14 05:20:44;;;;;;;4.70;2.97;;;;;;;;;;5043217;28;20049;-81
2022/09/14 05:23:10;;;;;;;4.85;2.20;;;;;;;;;;5048623;28;20083;-81
2022/09/14 05:25:37;;;;;;;4.32;1.70;;;;;;;;;;5045820;28;20044;-81
2022/09/14 05:28:03;;;;;;;3.42;1.92;;;;;;;;;;5047961;28;20049;-81
2022/09/14 05:30:29;;;;;;;4.38;1.80;;;;;;;;;;5045415;28;20044;-81
2022/09/14 05:32:55;;;;;;;4.10;2.00;;;;;;;;;;5041392;28;20053;-81
2022/09/14 05:35:21;;;;;;;2.40;1.58;;;;;;;;;;5040690;28;20044;-81
2022/09/14 05:37:47;;;;;;;4.63;2.08;;;;;;;;;;5039883;28;20475;-80
2022/09/14 05:40:13;;;;;;;5.20;2.13;;;;;;;;;;5047542;28;20037;-81
2022/09/14 05:42:39;;;;;;;4.05;2.03;;;;;;;;;;5046214;28;20413;-81
2022/09/14 05:45:05;;;;;;;4.28;1.90;;;;;;;;;;5045331;28;20041;-81
2022/09/14 05:47:32;;;;;;;2.45;1.90;;;;;;;;;;5049258;28;20059;-80
2022/09/14 05:49:58;;;;;;;4.65;2.80;;;;;;;;;;5050275;28;20472;-81
2022/09/14 05:52:24;;;;;;;2.75;2.28;;;;;;;;;;5042816;28;20167;-81
2022/09/14 05:54:50;;;;;;;1.85;1.70;;;;;;;;;;5042219;28;20537;-81
2022/09/14 05:57:16;;;;;;;2.42;1.90;;;;;;;;;;5051313;28;20036;-81
2022/09/14 05:59:42;;;;;;;2.83;2.20;;;;;;;;;;5047952;28;20053;-81
2022/09/14 06:02:08;;;;;;;3.05;2.03;;;;;;;;;;5053515;28;20037;-81
2022/09/14 06:04:35;;;;;;;5.07;2.20;;;;;;;;;;5045085;28;20041;-81
2022/09/14 06:07:01;;;;;;;3.30;2.10;;;;;;;;;;5045771;28;20072;-81
2022/09/14 06:09:28;;;;;;;3.00;2.08;;;;;;;;;;5046721;28;20512;-81
2022/09/14 06:11:54;;;;;;;2.30;2.10;;;;;;;;;;5050759;28;20136;-81
2022/09/14 06:14:20;;;;;;;3.55;2.00;;;;;;;;;;5048703;28;20444;-81
2022/09/14 06:16:46;;;;;;;3.88;2.13;;;;;;;;;;5045532;28;20040;-81
2022/09/14 06:19:14;;;;;;;4.43;2.25;;;;;;;;;;5030467;28;20412;-81
2022/09/14 06:21:40;;;;;;;4.38;2.28;;;;;;;;;;5047950;28;20125;-81
2022/09/14 06:24:06;;;;;;;4.75;2.03;;;;;;;;;;5046564;28;20049;-81
2022/09/14 06:26:32;;;;;;;4.57;2.05;;;;;;;;;;5045208;28;20044;-81
2022/09/14 06:28:58;;;;;;;4.63;2.10;;;;;;;;;;5036310;28;20134;-81
2022/09/14 06:31:24;;;;;;;2.95;2.13;;;;;;;;;;5048404;28;20049;-81
2022/09/14 06:33:51;;;;;;;6.85;2.60;;;;;;;;;;5038991;28;20076;-81
2022/09/14 06:36:18;;;;;;;4.03;1.90;;;;;;;;;;5041526;28;20041;-80
2022/09/14 06:38:45;;;;;;;6.00;2.33;;;;;;;;;;5046418;28;20049;-81
2022/09/14 06:41:12;;;;;;;2.65;1.90;;;;;;;;;;5046172;28;20044;-82
2022/09/14 06:43:42;;;;;;;2.83;1.95;;;;;;;;;;5041991;28;20080;-80
2022/09/14 06:46:12;;;;;;;5.10;2.00;;;;;;;;;;5046148;28;20378;-80
2022/09/14 06:48:40;;;;;;;5.22;2.00;;;;;;;;;;5038990;28;20393;-80
2022/09/14 06:51:13;;;;;;;2.80;1.80;;;;;;;;;;5049133;28;20496;-81
2022/09/14 06:53:39;;;;;;;5.30;1.60;;;;;;;;;;5050354;28;20049;-80
2022/09/14 06:56:05;;;;;;;2.55;1.70;;;;;;;;;;5042180;28;20057;-80
2022/09/14 06:58:32;;;;;;;5.88;1.52;;;;;;;;;;5052540;28;20041;-80
2022/09/14 07:01:02;;;;;;;4.95;1.55;;;;;;;;;;5047691;28;20072;-81
2022/09/14 07:03:28;;;;;;;2.85;1.40;;;;;;;;;;5050258;28;20493;-80
2022/09/14 07:06:00;;;;;;;3.47;1.50;;;;;;;;;;5053438;28;20128;-81
2022/09/14 07:08:27;;;;;;;5.75;2.28;;;;;;;;;;5054338;28;20123;-82
2022/09/14 07:10:57;;;;;;;4.18;1.60;;;;;;;;;;5047659;28;20445;-81
2022/09/14 07:13:24;;;;;;;4.55;1.50;;;;;;;;;;5056154;28;20044;-81
2022/09/14 07:15:50;;;;;;;3.05;1.65;;;;;;;;;;5045493;28;20088;-81
2022/09/14 07:18:21;;;;;;;7.07;1.88;;;;;;;;;;5054143;28;20064;-80
2022/09/14 07:20:47;;;;;;;6.05;1.77;;;;;;;;;;5051227;28;20041;-83
2022/09/14 07:23:13;;;;;;;6.45;1.98;;;;;;;;;;5052752;28;20412;-83
2022/09/14 07:25:39;;;;;;;7.70;1.85;;;;;;;;;;5039269;28;20049;-81
2022/09/14 07:28:06;;;;;;;6.18;1.70;;;;;;;;;;5037265;28;20154;-81
2022/09/14 07:30:34;;;;;;;8.30;1.90;;;;;;;;;;5047659;28;20037;-76
2022/09/14 07:33:01;;;;;;;9.02;2.13;;;;;;;;;;5054604;28;20053;-82
2022/09/14 07:35:27;;;;;;;8.02;2.78;;;;;;;;;;5046577;28;20461;-82
2022/09/14 07:37:54;;;;;;;7.57;2.20;;;;;;;;;;5052110;28;20203;-81
2022/09/14 07:40:21;;;;;;;4.13;1.70;;;;;;;;;;5050497;28;20045;-82
2022/09/14 07:42:54;;;;;;;7.13;1.80;;;;;;;;;;5050257;28;20045;-81
2022/09/14 07:45:20;;;;;;;11.65;2.30;;;;;;;;;;5052550;28;20041;-83
2022/09/14 07:47:46;;;;;;;4.63;1.70;;;;;;;;;;5045762;28;20420;-81
2022/09/14 07:50:13;;;;;;;5.63;2.00;;;;;;;;;;5050610;28;20457;-82
2022/09/14 07:52:39;;;;;;;3.95;1.50;;;;;;;;;;5049030;28;20516;-82
2022/09/14 07:55:05;;;;;;;6.05;1.65;;;;;;;;;;5045391;28;20456;-82
2022/09/14 07:57:32;;;;;;;6.63;1.52;;;;;;;;;;5041275;28;20044;-82
2022/09/14 07:59:58;;;;;;;7.88;1.67;;;;;;;;;;5042250;28;20033;-83
2022/09/14 08:02:27;;;;;;;3.97;1.30;;;;;;;;;;5045430;28;20048;-81
2022/09/14 08:04:53;;;;;;;6.80;1.60;;;;;;;;;;5044549;28;20091;-80
2022/09/14 08:07:19;;;;;;;3.70;1.52;;;;;;;;;;5049586;28;20048;-80
2022/09/14 08:09:45;;;;;;;9.10;1.42;;;;;;;;;;5049450;28;20070;-80
2022/09/14 08:12:14;;;;;;;4.95;1.52;;;;;;;;;;5043628;28;20052;-81
2022/09/14 08:14:40;;;;;;;2.65;1.38;;;;;;;;;;5045943;28;20041;-81
2022/09/14 08:17:07;;;;;;;4.30;1.60;;;;;;;;;;5042018;28;20049;-81
2022/09/14 08:19:34;;;;;;;2.67;1.55;;;;;;;;;;5046894;28;20048;-82
2022/09/14 08:22:00;;;;;;;3.33;1.48;;;;;;;;;;5044675;28;20512;-83
2022/09/14 08:24:26;;;;;;;3.95;1.30;;;;;;;;;;5042925;28;20613;-83
2022/09/14 08:26:53;;;;;;;5.57;1.67;;;;;;;;;;5051728;28;20423;-81
2022/09/14 08:29:20;;;;;;;2.30;1.30;;;;;;;;;;5052793;28;20061;-83
2022/09/14 08:31:47;;;;;;;2.70;1.40;;;;;;;;;;5047483;28;20118;-83
2022/09/14 08:34:14;;;;;;;2.53;1.23;;;;;;;;;;5049810;28;20048;-84
2022/09/14 08:36:41;;;;;;;2.47;1.17;;;;;;;;;;5051124;28;20479;-84
2022/09/14 08:39:08;;;;;;;7.32;2.13;;;;;;;;;;5054489;28;20094;-83
2022/09/14 08:41:40;;;;;;;5.85;1.20;;;;;;;;;;5034702;28;20049;-83
2022/09/14 08:44:15;;;;;;;2.58;1.20;;;;;;;;;;5042866;28;20107;-82
2022/09/14 08:46:43;;;;;;;2.42;1.17;;;;;;;;;;5048924;28;20041;-82
2022/09/14 08:49:16;;;;;;;3.97;1.20;;;;;;;;;;5045430;28;20512;-82
2022/09/14 08:51:42;;;;;;;2.65;1.20;;;;;;;;;;5047567;28;20467;-82
2022/09/14 08:54:09;;;;;;;3.92;1.50;;;;;;;;;;5046333;28;20106;-84
2022/09/14 08:56:38;;;;;;;3.03;1.50;;;;;;;;;;5044738;28;20053;-82
2022/09/14 08:59:15;;;;;;;4.10;1.33;;;;;;;;;;5047565;28;20063;-83
2022/09/14 09:01:50;;;;;;;6.07;1.20;;;;;;;;;;5042499;28;20125;-82
2022/09/14 09:04:16;;;;;;;1.77;1.30;;;;;;;;;;5048793;28;20040;-82
2022/09/14 09:07:08;;;;;;;4.75;1.48;;;;;;;;;;5051454;28;20198;-82
2022/09/14 09:09:40;;;;;;;4.55;1.25;;;;;;;;;;5045043;28;20072;-82
2022/09/14 09:12:06;;;;;;;1.73;1.17;;;;;;;;;;5046458;28;20092;-83
2022/09/14 09:14:34;;;;;;;4.93;1.50;;;;;;;;;;5049073;28;20462;-82
2022/09/14 09:17:02;;;;;;;4.32;1.30;;;;;;;;;;5046500;28;20073;-82
2022/09/14 09:19:41;;;;;;;3.25;1.20;;;;;;;;;;5048426;28;20436;-82
2022/09/14 09:22:11;;;;;;;1.98;1.17;;;;;;;;;;5046235;28;20037;-82
2022/09/14 09:24:42;;;;;;;4.72;1.20;;;;;;;;;;5040908;28;20045;-82
2022/09/14 09:27:09;;;;;;;3.58;1.30;;;;;;;;;;5046619;28;21933;-82
2022/09/14 09:29:35;;;;;;;3.72;1.52;;;;;;;;;;5048051;28;20049;-82
2022/09/14 09:32:03;;;;;;;4.32;1.67;;;;;;;;;;5042065;28;20045;-82
2022/09/14 09:34:30;;;;;;;1.95;1.40;;;;;;;;;;5049339;28;20080;-82
2022/09/14 09:36:56;;;;;;;4.60;1.75;;;;;;;;;;5047730;28;20061;-82
2022/09/14 09:39:23;;;;;;;3.60;1.45;;;;;;;;;;5047766;28;20516;-83
2022/09/14 09:42:06;;;;;;;5.15;1.23;;;;;;;;;;5035755;28;20037;-86
2022/09/14 09:44:54;;;;;;;8.27;1.85;;;;;;;;;;5044736;28;20057;-85
2022/09/14 09:47:31;;;;;;;5.80;1.35;;;;;;;;;;5042681;28;20044;-87
2022/09/14 09:50:02;;;;;;;4.18;1.27;;;;;;;;;;5046927;28;20060;-87
2022/09/14 09:52:29;;;;;;;2.83;1.13;;;;;;;;;;5046726;28;20131;-86
2022/09/14 09:54:56;;;;;;;3.13;1.27;;;;;;;;;;5043152;28;20378;-86
2022/09/14 09:57:35;;;;;;;4.43;1.55;;;;;;;;;;5044796;28;20435;-87
2022/09/14 10:00:12;;;;;;;4.25;1.23;;;;;;;;;;5049451;28;20127;-86
2022/09/14 10:02:38;;;;;;;2.72;1.40;;;;;;;;;;5044577;28;20037;-86
2022/09/14 10:05:09;;;;;;;4.30;1.42;;;;;;;;;;5044763;28;20048;-86
2022/09/14 10:07:54;;;;;;;1.67;1.30;;;;;;;;;;5046830;28;20041;-87
2022/09/14 10:10:39;;;;;;;3.63;1.45;;;;;;;;;;5046879;28;20037;-87
2022/09/14 10:13:39;;;;;;;11.38;2.40;;;;;;;;;;5047807;28;20079;-85
2022/09/14 10:16:24;;;;;;;3.30;1.55;;;;;;;;;;5038618;28;20045;-85
2022/09/14 10:18:51;;;;;;;4.25;1.33;;;;;;;;;;5038758;28;20090;-84
2022/09/14 10:21:18;;;;;;;3.58;1.50;;;;;;;;;;5043071;28;20056;-85
2022/09/14 10:23:44;;;;;;;4.97;1.42;;;;;;;;;;5045098;28;20045;-84
2022/09/14 10:26:13;;;;;;;6.03;1.45;;;;;;;;;;5043470;28;20131;-86
2022/09/14 10:28:41;;;;;;;3.58;1.30;;;;;;;;;;5047197;28;20047;-85
2022/09/14 10:31:19;;;;;;;48.13;4.47;;;;;;;;;;5043138;28;20045;-85
2022/09/14 10:33:55;;;;;;;3.83;1.50;;;;;;;;;;5041594;28;20047;-86
2022/09/14 10:36:23;;;;;;;4.50;1.30;;;;;;;;;;5046130;28;20079;-83
2022/09/14 10:38:57;;;;;;;3.97;1.38;;;;;;;;;;5050189;28;20053;-84
2022/09/14 10:41:30;;;;;;;4.57;1.50;;;;;;;;;;5050856;28;20049;-85
2022/09/14 10:43:56;;;;;;;;;;;;;;;;;;5052709;28;20045;-84
2022/09/14 10:46:29;;;;;;;5.55;1.38;;;;;;;;;;5043927;28;19931;-85
2022/09/14 10:49:21;;;;;;;2.85;1.27;;;;;;;;;;5038865;28;20130;-88
2022/09/14 10:51:47;;;;;;;1.40;1.00;;;;;;;;;;5051695;28;20044;-86
2022/09/14 10:54:22;;;;;;;2.35;1.60;;;;;;;;;;5043335;28;20098;-85
2022/09/14 10:57:12;;;;;;;3.08;1.35;;;;;;;;;;5041115;28;20052;-84
2022/09/14 10:59:38;;;;;;;4.75;1.20;;;;;;;;;;5028337;28;20052;-86
2022/09/14 11:02:19;;;;;;;2.58;1.50;;;;;;;;;;5044928;28;20056;-85
2022/09/14 11:04:56;;;;;;;5.07;1.35;;;;;;;;;;5044075;28;20076;-86
2022/09/14 11:07:38;;;;;;;3.78;1.23;;;;;;;;;;5046970;28;20089;-84
2022/09/14 11:10:30;;;;;;;3.03;1.00;;;;;;;;;;5047331;28;20153;-82
2022/09/14 11:13:16;;;;;;;2.78;1.10;;;;;;;;;;5039229;28;20060;-82
2022/09/14 11:16:02;;;;;;;5.43;1.50;;;;;;;;;;5046842;28;20041;-81
2022/09/14 11:18:53;;;;;;;1.58;1.15;;;;;;;;;;5042359;28;20049;-81
2022/09/14 11:21:32;;;;;;;3.08;1.48;;;;;;;;;;5046848;28;20045;-81
2022/09/14 11:24:02;;;;;;;4.05;1.40;;;;;;;;;;5040752;28;20118;-86
2022/09/14 11:26:31;;;;;;;2.20;1.30;;;;;;;;;;5042257;28;20438;-89
2022/09/14 11:29:00;;;;;;;3.45;1.40;;;;;;;;;;5046024;28;20041;-89
2022/09/14 11:31:40;;;;;;;2.53;1.35;;;;;;;;;;5049853;28;20041;-87
2022/09/14 11:34:20;;;;;;;3.97;1.40;;;;;;;;;;5043176;28;20409;-87
2022/09/14 11:36:49;;;;;;;3.30;1.33;;;;;;;;;;5036788;28;20497;-85
2022/09/14 11:39:19;;;;;;;3.30;1.40;;;;;;;;;;5044072;28;20136;-89
2022/09/14 11:42:02;;;;;;;2.63;1.30;;;;;;;;;;5043410;28;20077;-82
2022/09/14 11:44:35;;;;;;;5.13;1.50;;;;;;;;;;5045909;28;20042;-84
2022/09/14 11:47:07;;;;;;;1.92;1.25;;;;;;;;;;5051001;28;20083;-81
2022/09/14 11:49:33;;;;;;;5.85;1.90;;;;;;;;;;5048660;28;20136;-81
2022/09/14 11:52:22;;;;;;;6.07;1.45;;;;;;;;;;5044796;28;20127;-82
2022/09/14 11:54:49;;;;;;;1.92;1.23;;;;;;;;;;5047725;28;20053;-81
2022/09/14 11:57:22;;;;;;;1.95;1.25;;;;;;;;;;5049546;28;20821;-81
2022/09/14 11:59:50;;;;;;;2.17;1.25;;;;;;;;;;5044372;28;20061;-81
2022/09/14 12:02:22;;;;;;;4.90;2.40;;;;;;;;;;5043950;28;20052;-82
2022/09/14 12:05:07;;;;;;;5.50;2.00;;;;;;;;;;5050063;28;20129;-81
2022/09/14 12:07:45;;;;;;;3.22;1.30;;;;;;;;;;5047744;28;20056;-79
2022/09/14 12:10:16;;;;;;;3.90;1.38;;;;;;;;;;5040409;28;20389;-79
2022/09/14 12:13:17;;;;;;;5.10;1.25;;;;;;;;;;5043308;28;20041;-79
2022/09/14 12:15:43;;;;;;;5.22;1.25;;;;;;;;;;5043636;28;20432;-79
2022/09/14 12:18:09;;;;;;;4.28;1.27;;;;;;;;;;5040618;28;20048;-79
2022/09/14 12:20:35;;;;;;;3.03;1.23;;;;;;;;;;5043159;28;20086;-79
2022/09/14 12:23:04;;;;;;;5.53;1.50;;;;;;;;;;5048655;28;20056;-79
2022/09/14 12:25:30;;;;;;;1.88;1.05;;;;;;;;;;5042506;28;20048;-79
2022/09/14 12:27:56;;;;;;;4.57;1.20;;;;;;;;;;5045784;28;20484;-79
2022/09/14 12:30:54;;;;;;;3.55;1.20;;;;;;;;;;5047607;28;20843;-81
2022/09/14 12:33:33;;;;;;;5.50;1.30;;;;;;;;;;5042226;28;20056;-80
2022/09/14 12:36:01;;;;;;;3.70;1.50;;;;;;;;;;5041400;28;20044;-81
2022/09/14 12:38:30;;;;;;;2.53;1.00;;;;;;;;;;5043888;28;20049;-80
2022/09/14 12:40:59;;;;;;;2.75;1.13;;;;;;;;;;5043333;28;20484;-81
2022/09/14 12:43:31;;;;;;;3.03;1.10;;;;;;;;;;5046498;28;20508;-81
2022/09/14 12:46:02;;;;;;;3.03;1.25;;;;;;;;;;5043689;28;20040;-80
2022/09/14 12:48:46;;;;;;;4.88;1.15;;;;;;;;;;5048154;28;20049;-80
2022/09/14 12:51:28;;;;;;;3.22;1.10;;;;;;;;;;5044029;28;20049;-81
2022/09/14 12:54:15;;;;;;;2.60;1.20;;;;;;;;;;5046278;28;20049;-81
2022/09/14 12:56:47;;;;;;;1.77;1.30;;;;;;;;;;5044610;28;20147;-81
2022/09/14 12:59:21;;;;;;;3.05;1.20;;;;;;;;;;5042349;28;20135;-83
2022/09/14 13:01:56;;;;;;;1.58;1.13;;;;;;;;;;5042816;28;20038;-81
2022/09/14 13:04:26;;;;;;;4.22;0.98;;;;;;;;;;5042783;28;20053;-81
2022/09/14 13:06:54;;;;;;;4.13;1.45;;;;;;;;;;5045098;28;20033;-83
2022/09/14 13:09:25;;;;;;;1.83;1.02;;;;;;;;;;5039562;28;20436;-80
2022/09/14 13:11:56;;;;;;;2.22;1.00;;;;;;;;;;5048344;28;20401;-80
2022/09/14 13:14:23;;;;;;;3.75;1.00;;;;;;;;;;5046602;28;20226;-81
2022/09/14 13:16:50;;;;;;;3.17;1.00;;;;;;;;;;5043609;28;20045;-81
2022/09/14 13:19:22;;;;;;;1.05;0.95;;;;;;;;;;5046774;28;20055;-80
2022/09/14 13:21:50;;;;;;;5.80;1.20;;;;;;;;;;5047994;28;20166;-81
2022/09/14 13:24:39;;;;;;;2.05;1.20;;;;;;;;;;5047393;28;20452;-80
2022/09/14 13:27:07;;;;;;;2.58;1.40;;;;;;;;;;5043960;28;20048;-80
2022/09/14 13:29:33;;;;;;;3.53;1.30;;;;;;;;;;5049047;28;20080;-80
2022/09/14 13:31:59;;;;;;;3.25;1.30;;;;;;;;;;5043656;28;20041;-80
2022/09/14 13:34:28;;;;;;;2.28;1.13;;;;;;;;;;5041793;28;20041;-81
2022/09/14 13:36:54;;;;;;;5.43;1.50;;;;;;;;;;5047245;28;20036;-79
2022/09/14 13:39:23;;;;;;;3.30;1.15;;;;;;;;;;5046861;28;20049;-80
2022/09/14 13:41:50;;;;;;;1.73;1.20;;;;;;;;;;5046981;28;20427;-83
2022/09/14 13:44:16;;;;;;;3.38;1.25;;;;;;;;;;5047073;28;20098;-81
2022/09/14 13:46:42;;;;;;;2.33;1.25;;;;;;;;;;5043179;28;20056;-82
2022/09/14 13:49:09;;;;;;;2.00;1.00;;;;;;;;;;5042381;28;20085;-79
2022/09/14 13:51:35;;;;;;;2.25;1.00;;;;;;;;;;5042003;28;20772;-81
2022/09/14 13:54:20;;;;;;;1.77;1.10;;;;;;;;;;5045270;28;20052;-80
2022/09/14 13:56:46;;;;;;;2.90;1.25;;;;;;;;;;5046253;28;20168;-84
2022/09/14 13:59:13;;;;;;;2.38;1.20;;;;;;;;;;5047432;28;20477;-84
2022/09/14 14:01:47;;;;;;;3.13;1.40;;;;;;;;;;5044959;28;20127;-84
2022/09/14 14:04:25;;;;;;;1.73;1.15;;;;;;;;;;5044196;28;20435;-85
2022/09/14 14:07:05;;;;;;;1.90;1.02;;;;;;;;;;5043330;28;20048;-85
2022/09/14 14:09:49;;;;;;;2.30;1.20;;;;;;;;;;5045843;28;20052;-84
2022/09/14 14:12:26;;;;;;;3.45;1.08;;;;;;;;;;5040297;28;20041;-84
2022/09/14 14:14:53;;;;;;;2.92;1.15;;;;;;;;;;5040925;28;20386;-84
2022/09/14 14:17:28;;;;;;;1.75;0.95;;;;;;;;;;5042482;28;20041;-84
2022/09/14 14:19:59;;;;;;;1.98;0.80;;;;;;;;;;5041389;28;20052;-85
2022/09/14 14:22:27;;;;;;;2.65;1.00;;;;;;;;;;5047186;28;20080;-85
2022/09/14 14:24:54;;;;;;;2.58;0.80;;;;;;;;;;5042671;28;20045;-84
2022/09/14 14:27:28;;;;;;;3.08;0.93;;;;;;;;;;5047438;28;20056;-82
2022/09/14 14:29:54;;;;;;;2.78;1.35;;;;;;;;;;5041684;28;20043;-79
2022/09/14 14:32:21;;;;;;;2.00;1.00;;;;;;;;;;5036470;28;20053;-79
2022/09/14 14:34:47;;;;;;;2.40;0.95;;;;;;;;;;5042205;28;20037;-80
2022/09/14 14:37:13;;;;;;;2.10;0.90;;;;;;;;;;5045468;28;20045;-78
2022/09/14 14:39:39;;;;;;;3.33;1.00;;;;;;;;;;5044678;28;20094;-78
2022/09/14 14:42:06;;;;;;;2.08;1.10;;;;;;;;;;5048123;28;20495;-80
2022/09/14 14:44:33;;;;;;;2.38;1.00;;;;;;;;;;5042054;28;20626;-79
2022/09/14 14:46:59;;;;;;;1.95;1.05;;;;;;;;;;5041559;28;20037;-78
2022/09/14 14:49:25;;;;;;;2.17;0.85;;;;;;;;;;5045219;28;20056;-78
2022/09/14 14:51:52;;;;;;;2.00;0.85;;;;;;;;;;5044783;28;20381;-79
2022/09/14 14:54:18;;;;;;;1.25;0.90;;;;;;;;;;5044667;28;20047;-79
2022/09/14 14:56:46;;;;;;;1.92;0.80;;;;;;;;;;5044946;28;20045;-79
2022/09/14 14:59:21;;;;;;;1.27;0.93;;;;;;;;;;5041492;28;20094;-79